HBI weather

Asheboro Regional Airport
Asheboro, North Carolina, United States

Public forecast

Using degrees Fahrenheit for public forecast. Weather courtesy of forecast.io.

METAR (pilot weather report)

Retrieved 2019/07/18 04:25 UTC (0 seconds ago):

KHBI 180425Z AUTO 19003KT 10SM SCT070 SCT095 27/19 A3002 RMK AO2 T02710187

TAF (pilot weather forecast)

Forecast is more than 12 hours old.

Closest forecast is Piedmont Triad International Airport, 26.7 nm (49.4 km) N. Retrieved 2019/07/17 00:36 UTC (1 day ago):

TAF KGSO 172334Z 1800/1824 24007KT P6SM BKN150 FM180500 22004KT P6SM SCT120 FM181800 25007KT P6SM VCTS SCT050CB BKN180 TEMPO 1819/1823 BKN050CB